Time;durP1;ratioP1;P1;durP2;ratioP2;P2;SDS_P1;SDS_P2;PMS_P1;PMS_P2;Temp;Humidity;BMP_temperature;BMP_pressure;BME280_temperature;BME280_humidity;BME280_pressure;Samples;Min_cycle;Max_cycle;Signal;HPM_P1;HPM_P2
2023/05/31 00:02:15;;;;;;;2.07;1.87;;;13.20;99.90;;;;;;5052652;28;20198;-69
2023/05/31 00:04:41;;;;;;;4.63;2.13;;;13.20;99.90;;;;;;5052347;28;20749;-69
2023/05/31 00:07:07;;;;;;;2.33;1.93;;;13.20;99.90;;;;;;5054337;28;20444;-70
2023/05/31 00:09:32;;;;;;;2.90;1.80;;;13.20;99.90;;;;;;5053427;28;20194;-70
2023/05/31 00:11:59;;;;;;;2.67;1.90;;;13.20;99.90;;;;;;5054988;28;20178;-70
2023/05/31 00:14:25;;;;;;;4.20;2.23;;;13.10;99.90;;;;;;5052815;28;20182;-68
2023/05/31 00:16:51;;;;;;;2.33;1.90;;;13.10;99.90;;;;;;5049457;28;20422;-69
2023/05/31 00:19:17;;;;;;;5.40;2.17;;;13.00;99.90;;;;;;5050533;28;20339;-69
2023/05/31 00:21:46;;;;;;;2.50;1.70;;;13.00;99.90;;;;;;5053482;28;20544;-68
2023/05/31 00:24:12;;;;;;;6.07;2.20;;;13.00;99.90;;;;;;5049862;28;20186;-68
2023/05/31 00:26:38;;;;;;;4.43;2.07;;;12.90;99.90;;;;;;5051468;28;20444;-68
2023/05/31 00:29:04;;;;;;;4.10;1.90;;;12.90;99.90;;;;;;5045471;28;20492;-68
2023/05/31 00:31:29;;;;;;;2.43;1.30;;;12.80;99.90;;;;;;5053364;28;20915;-69
2023/05/31 00:33:56;;;;;;;1.60;1.50;;;12.80;99.90;;;;;;5052957;28;20640;-70
2023/05/31 00:36:25;;;;;;;1.87;1.30;;;12.80;99.90;;;;;;5053360;28;20163;-69
2023/05/31 00:38:51;;;;;;;4.50;1.73;;;12.70;99.90;;;;;;5052209;28;20453;-69
2023/05/31 00:41:20;;;;;;;4.10;1.73;;;12.70;99.90;;;;;;5053476;28;20753;-67
2023/05/31 00:43:45;;;;;;;3.37;2.13;;;12.70;99.90;;;;;;5052149;28;20167;-68
2023/05/31 00:46:28;;;;;;;2.80;1.73;;;12.60;99.90;;;;;;5051509;28;20421;-69
2023/05/31 00:48:55;;;;;;;4.23;1.80;;;12.60;99.90;;;;;;5051805;28;20190;-68
2023/05/31 00:51:21;;;;;;;2.73;1.97;;;12.60;99.90;;;;;;5048405;28;20508;-69
2023/05/31 00:53:47;;;;;;;3.60;1.90;;;12.60;99.90;;;;;;5052399;28;20483;-69
2023/05/31 00:56:13;;;;;;;2.53;1.60;;;12.60;99.90;;;;;;5049669;28;20406;-69
2023/05/31 00:58:41;;;;;;;7.17;1.67;;;12.50;99.90;;;;;;5041645;28;20196;-69
2023/05/31 01:01:08;;;;;;;2.13;1.57;;;12.50;99.90;;;;;;5047198;28;20410;-66
2023/05/31 01:03:34;;;;;;;2.80;1.87;;;12.50;99.90;;;;;;5042962;28;20540;-69
2023/05/31 01:06:00;;;;;;;2.27;1.50;;;12.40;99.90;;;;;;5048738;28;20490;-69
2023/05/31 01:08:26;;;;;;;3.10;1.87;;;12.40;99.90;;;;;;5052491;28;20437;-68
2023/05/31 01:10:57;;;;;;;2.53;1.90;;;12.40;99.90;;;;;;5051674;28;20458;-70
2023/05/31 01:13:38;;;;;;;5.90;2.03;;;12.40;99.90;;;;;;5050454;28;20409;-71
2023/05/31 01:16:28;;;;;;;3.40;1.90;;;12.30;99.90;;;;;;5052554;28;20425;-67
2023/05/31 01:19:02;;;;;;;2.83;1.57;;;12.30;99.90;;;;;;5044772;28;20434;-69
2023/05/31 01:21:44;;;;;;;2.30;1.90;;;12.30;99.90;;;;;;5051332;28;20412;-69
2023/05/31 01:24:22;;;;;;;5.80;1.83;;;12.20;99.90;;;;;;5050417;28;20862;-69
2023/05/31 01:26:49;;;;;;;3.17;1.77;;;12.10;99.90;;;;;;5051877;28;20456;-66
2023/05/31 01:29:21;;;;;;;2.63;1.70;;;12.10;99.90;;;;;;5052356;28;20511;-70
2023/05/31 01:31:48;;;;;;;3.93;3.53;;;12.10;99.90;;;;;;5050690;28;20766;-69
2023/05/31 01:34:14;;;;;;;2.70;1.87;;;12.00;99.90;;;;;;5052157;28;20904;-70
2023/05/31 01:36:40;;;;;;;4.20;1.97;;;12.00;99.90;;;;;;5052148;28;20406;-69
2023/05/31 01:39:07;;;;;;;2.27;1.43;;;12.00;99.90;;;;;;5052209;28;20463;-68
2023/05/31 01:41:36;;;;;;;2.73;2.07;;;11.90;99.90;;;;;;5051101;28;20167;-68
2023/05/31 01:44:03;;;;;;;1.77;1.37;;;11.90;99.90;;;;;;5049991;28;20413;-67
2023/05/31 01:46:28;;;;;;;4.00;1.53;;;11.90;99.90;;;;;;5051895;28;20508;-69
2023/05/31 01:48:55;;;;;;;2.90;2.00;;;11.80;99.90;;;;;;5052018;28;20872;-69
2023/05/31 01:51:22;;;;;;;4.23;2.40;;;11.80;99.90;;;;;;5052044;28;20353;-70
2023/05/31 01:53:48;;;;;;;2.93;2.33;;;11.70;99.90;;;;;;5051973;28;20414;-69
2023/05/31 01:56:14;;;;;;;5.00;1.90;;;11.70;99.90;;;;;;5051730;28;20416;-70
2023/05/31 01:58:41;;;;;;;2.80;2.10;;;11.60;99.90;;;;;;5051696;28;20421;-70
2023/05/31 02:01:10;;;;;;;5.73;2.60;;;11.60;99.90;;;;;;5051719;28;20437;-69
2023/05/31 02:03:38;;;;;;;6.10;2.13;;;11.60;99.90;;;;;;5051937;28;20532;-70
2023/05/31 02:06:04;;;;;;;2.90;2.27;;;11.50;99.90;;;;;;5047623;28;20938;-70
2023/05/31 02:08:29;;;;;;;3.87;2.07;;;11.50;99.90;;;;;;5050640;28;20429;-70
2023/05/31 02:10:55;;;;;;;2.80;2.07;;;11.50;99.90;;;;;;5050462;28;21001;-70
2023/05/31 02:13:25;;;;;;;5.30;1.83;;;11.40;99.90;;;;;;5051743;28;20171;-69
2023/05/31 02:15:51;;;;;;;2.00;1.80;;;11.40;99.90;;;;;;5051537;28;20624;-68
2023/05/31 02:18:17;;;;;;;2.63;2.07;;;11.40;99.90;;;;;;5049807;28;20467;-68
2023/05/31 02:20:46;;;;;;;4.47;2.33;;;11.40;99.90;;;;;;5051572;28;20629;-69
2023/05/31 02:23:11;;;;;;;3.93;1.93;;;11.30;99.90;;;;;;5051361;28;20209;-68
2023/05/31 02:25:37;;;;;;;3.80;2.00;;;11.30;99.90;;;;;;5050092;28;20879;-69
2023/05/31 02:28:03;;;;;;;4.23;1.60;;;11.30;99.90;;;;;;5051179;28;20213;-69
2023/05/31 02:30:31;;;;;;;2.53;1.73;;;11.30;99.90;;;;;;5051517;28;20174;-69
2023/05/31 02:32:59;;;;;;;3.67;1.83;;;11.20;99.90;;;;;;5051287;28;20230;-69
2023/05/31 02:35:25;;;;;;;2.27;2.07;;;11.10;99.90;;;;;;5050869;28;20480;-70
2023/05/31 02:37:51;;;;;;;4.60;1.93;;;11.20;99.90;;;;;;5051239;28;20452;-69
2023/05/31 02:40:16;;;;;;;2.10;1.80;;;11.10;99.90;;;;;;5047362;28;20328;-67
2023/05/31 02:42:42;;;;;;;2.87;2.10;;;11.10;99.90;;;;;;5051706;28;20198;-68
2023/05/31 02:45:09;;;;;;;3.03;2.43;;;11.10;99.90;;;;;;5051738;28;20175;-68
2023/05/31 02:47:37;;;;;;;2.20;2.00;;;11.10;99.90;;;;;;5048478;28;20417;-70
2023/05/31 02:50:04;;;;;;;2.93;1.83;;;11.00;99.90;;;;;;5051286;28;20437;-69
2023/05/31 02:52:30;;;;;;;3.00;2.10;;;11.00;99.90;;;;;;5050401;28;20880;-69
2023/05/31 02:54:55;;;;;;;2.20;2.00;;;11.00;99.90;;;;;;5055052;28;20401;-70
2023/05/31 02:57:21;;;;;;;2.43;2.00;;;11.00;99.90;;;;;;5055038;28;20932;-70
2023/05/31 02:59:50;;;;;;;2.80;1.70;;;10.90;99.90;;;;;;5055364;28;20185;-69
2023/05/31 03:02:15;;;;;;;4.93;2.60;;;10.90;99.90;;;;;;5054956;28;20194;-70
2023/05/31 03:04:44;;;;;;;3.07;1.73;;;10.90;99.90;;;;;;5053191;28;20426;-70
2023/05/31 03:07:10;;;;;;;2.23;1.80;;;10.90;99.90;;;;;;5055013;28;20695;-70
2023/05/31 03:09:35;;;;;;;5.70;2.00;;;10.90;99.90;;;;;;5054238;28;20482;-69
2023/05/31 03:12:02;;;;;;;3.70;2.60;;;10.80;99.90;;;;;;5055266;28;20201;-69
2023/05/31 03:14:28;;;;;;;5.53;1.77;;;10.90;99.90;;;;;;5054730;28;20205;-69
2023/05/31 03:16:53;;;;;;;3.70;2.40;;;10.80;99.90;;;;;;5054768;28;20409;-69
2023/05/31 03:19:19;;;;;;;5.10;2.50;;;10.80;99.90;;;;;;5054667;28;20237;-69
2023/05/31 03:21:44;;;;;;;4.90;2.37;;;10.90;99.90;;;;;;5053285;28;20204;-69
2023/05/31 03:24:10;;;;;;;3.17;2.23;;;10.90;99.90;;;;;;5053373;28;20173;-69
2023/05/31 03:26:36;;;;;;;2.33;1.80;;;10.80;99.90;;;;;;5054916;28;20172;-69
2023/05/31 03:29:02;;;;;;;1.53;1.40;;;10.90;99.90;;;;;;5054739;28;20252;-69
2023/05/31 03:31:29;;;;;;;2.53;2.33;;;10.80;99.90;;;;;;5053397;28;20173;-69
2023/05/31 03:33:55;;;;;;;3.20;2.60;;;10.90;99.90;;;;;;5054844;28;20410;-69
2023/05/31 03:36:20;;;;;;;2.50;1.70;;;10.80;99.90;;;;;;5053065;28;20429;-69
2023/05/31 03:38:46;;;;;;;5.37;1.93;;;10.90;99.90;;;;;;5054525;28;20439;-68
2023/05/31 03:41:11;;;;;;;4.57;2.30;;;10.90;99.90;;;;;;5054827;28;20244;-69
2023/05/31 03:43:37;;;;;;;4.60;1.90;;;10.90;99.90;;;;;;5054710;28;20626;-69
2023/05/31 03:46:02;;;;;;;3.97;3.13;;;10.90;99.90;;;;;;5054406;28;20178;-70
2023/05/31 03:48:28;;;;;;;3.40;2.07;;;10.90;99.90;;;;;;5053939;28;20603;-70
2023/05/31 03:50:55;;;;;;;5.27;2.80;;;11.00;99.90;;;;;;5052805;28;20178;-69
2023/05/31 03:53:21;;;;;;;2.10;1.90;;;11.00;99.90;;;;;;5054424;28;20587;-69
2023/05/31 03:55:46;;;;;;;3.27;2.90;;;11.00;99.90;;;;;;5054151;28;20412;-69
2023/05/31 03:58:12;;;;;;;6.63;2.03;;;11.00;99.90;;;;;;5054132;28;20215;-69
2023/05/31 04:00:38;;;;;;;4.43;2.13;;;11.00;99.90;;;;;;5053938;28;20254;-69
2023/05/31 04:03:04;;;;;;;5.00;2.80;;;11.00;99.90;;;;;;5054490;28;20798;-70
2023/05/31 04:05:29;;;;;;;5.60;2.63;;;11.10;99.90;;;;;;5053369;28;20170;-71
2023/05/31 04:07:55;;;;;;;4.30;1.90;;;11.10;99.90;;;;;;5052344;28;20229;-69
2023/05/31 04:10:21;;;;;;;2.93;2.27;;;11.10;99.90;;;;;;5046362;28;20621;-69
2023/05/31 04:12:46;;;;;;;7.53;1.90;;;11.20;99.90;;;;;;5054339;28;20668;-70
2023/05/31 04:15:12;;;;;;;5.27;2.67;;;11.20;99.90;;;;;;5053947;28;20170;-70
2023/05/31 04:17:37;;;;;;;2.50;1.80;;;11.30;99.90;;;;;;5053736;28;20202;-68
2023/05/31 04:20:07;;;;;;;3.30;2.20;;;11.50;99.90;;;;;;5053995;28;20814;-69
2023/05/31 04:22:33;;;;;;;5.50;1.87;;;12.40;99.90;;;;;;5053890;28;20194;-68
2023/05/31 04:24:59;;;;;;;2.57;1.63;;;13.50;99.90;;;;;;5053508;28;20471;-68
2023/05/31 04:27:25;;;;;;;2.77;1.90;;;14.50;99.90;;;;;;5050887;28;20789;-68
2023/05/31 04:29:51;;;;;;;4.93;2.13;;;15.30;99.90;;;;;;5052273;28;20569;-70
2023/05/31 04:32:17;;;;;;;6.07;2.07;;;15.50;99.90;;;;;;5053384;28;20426;-68
2023/05/31 04:34:42;;;;;;;4.17;2.00;;;15.30;99.90;;;;;;5053477;28;20174;-69
2023/05/31 04:37:09;;;;;;;1.80;1.70;;;15.40;99.90;;;;;;5053286;28;20221;-69
2023/05/31 04:39:36;;;;;;;2.90;2.03;;;15.50;99.90;;;;;;5053314;28;20214;-69
2023/05/31 04:42:02;;;;;;;2.80;2.10;;;15.40;99.90;;;;;;5053721;28;20804;-70
2023/05/31 04:44:28;;;;;;;2.97;2.30;;;14.70;99.90;;;;;;5051341;28;20427;-71
2023/05/31 04:46:53;;;;;;;2.30;2.10;;;14.70;99.90;;;;;;5053795;28;20763;-70
2023/05/31 04:49:19;;;;;;;3.60;2.00;;;14.40;99.90;;;;;;5053245;28;20188;-69
2023/05/31 04:51:45;;;;;;;3.63;2.30;;;14.20;99.90;;;;;;5053087;28;20173;-69
2023/05/31 04:54:10;;;;;;;4.97;2.93;;;14.50;99.90;;;;;;5053026;28;20189;-68
2023/05/31 04:56:36;;;;;;;3.00;1.90;;;14.70;99.90;;;;;;5053182;28;20179;-69
2023/05/31 04:59:02;;;;;;;4.70;2.00;;;15.10;99.90;;;;;;5052668;28;20187;-69
2023/05/31 05:01:28;;;;;;;2.97;1.83;;;15.90;99.90;;;;;;5051442;28;20668;-69
2023/05/31 05:03:54;;;;;;;1.90;1.70;;;16.10;99.90;;;;;;5052939;28;20278;-69
2023/05/31 05:06:20;;;;;;;3.60;2.10;;;16.90;99.90;;;;;;5053003;28;20511;-71
2023/05/31 05:08:46;;;;;;;4.40;2.03;;;17.20;98.60;;;;;;5052823;28;20193;-70
2023/05/31 05:11:12;;;;;;;4.60;2.00;;;17.10;97.80;;;;;;5052836;28;20512;-70
2023/05/31 05:13:38;;;;;;;2.80;1.80;;;17.70;97.10;;;;;;5051318;28;20954;-68
2023/05/31 05:16:04;;;;;;;8.00;2.20;;;17.60;96.80;;;;;;5050663;28;20600;-69
2023/05/31 05:18:30;;;;;;;5.73;2.57;;;17.50;96.30;;;;;;5053424;28;20780;-70
2023/05/31 05:20:57;;;;;;;3.03;2.43;;;17.20;96.00;;;;;;5052798;28;20415;-70
2023/05/31 05:23:23;;;;;;;7.90;2.90;;;17.30;97.30;;;;;;5052788;28;20457;-68
2023/05/31 05:25:49;;;;;;;5.60;1.70;;;17.50;96.60;;;;;;5052601;28;20411;-69
2023/05/31 05:28:15;;;;;;;2.13;1.53;;;18.20;95.90;;;;;;5052608;28;20957;-68
2023/05/31 05:30:40;;;;;;;3.67;1.77;;;18.80;94.50;;;;;;5052794;28;20171;-70
2023/05/31 05:33:06;;;;;;;2.17;1.63;;;18.90;94.00;;;;;;5051509;28;20168;-70
2023/05/31 05:35:33;;;;;;;2.23;1.83;;;18.90;93.50;;;;;;5052596;28;20211;-70
2023/05/31 05:37:59;;;;;;;3.13;2.50;;;18.90;93.80;;;;;;5052624;28;20468;-70
2023/05/31 05:40:25;;;;;;;5.23;3.07;;;19.90;92.50;;;;;;5052574;28;20459;-68
2023/05/31 05:42:53;;;;;;;4.03;2.00;;;18.60;93.50;;;;;;5052589;28;20949;-72
2023/05/31 05:45:18;;;;;;;5.07;2.13;;;18.20;94.00;;;;;;5049502;28;20613;-70
2023/05/31 05:47:45;;;;;;;3.90;2.37;;;18.40;94.80;;;;;;5052075;28;20430;-69
2023/05/31 05:50:14;;;;;;;6.57;2.70;;;18.70;94.10;;;;;;5047224;28;20175;-68
2023/05/31 05:52:39;;;;;;;3.77;1.80;;;18.40;94.40;;;;;;5051236;28;20408;-70
2023/05/31 05:55:05;;;;;;;4.43;3.73;;;18.70;94.00;;;;;;5052449;28;20779;-70
2023/05/31 05:57:31;;;;;;;3.07;2.17;;;19.00;93.60;;;;;;5052130;28;20256;-71
2023/05/31 05:59:57;;;;;;;2.77;1.93;;;18.90;93.20;;;;;;5051436;28;20178;-70
2023/05/31 06:02:23;;;;;;;2.83;2.23;;;18.80;94.40;;;;;;5044865;28;20209;-70
2023/05/31 06:04:51;;;;;;;8.13;2.53;;;19.40;93.00;;;;;;5052120;28;20812;-69
2023/05/31 06:07:17;;;;;;;4.87;3.10;;;19.20;93.00;;;;;;5052060;28;20416;-68
2023/05/31 06:09:43;;;;;;;3.43;2.53;;;19.70;92.60;;;;;;5045619;28;20433;-70
2023/05/31 06:12:09;;;;;;;4.70;2.10;;;20.30;92.40;;;;;;5043557;28;20861;-69
2023/05/31 06:14:34;;;;;;;4.50;2.83;;;20.70;91.40;;;;;;5047561;28;20205;-69
2023/05/31 06:17:00;;;;;;;4.43;2.40;;;21.10;91.10;;;;;;5046014;28;20424;-70
2023/05/31 06:19:26;;;;;;;3.63;2.57;;;21.20;91.00;;;;;;5051591;28;20281;-69
2023/05/31 06:21:53;;;;;;;4.13;2.07;;;20.80;89.60;;;;;;5051375;28;20264;-70
2023/05/31 06:24:19;;;;;;;4.37;2.67;;;21.40;90.40;;;;;;5051256;28;20178;-72
2023/05/31 06:26:45;;;;;;;4.83;2.20;;;22.10;87.80;;;;;;5051359;28;20417;-69
2023/05/31 06:29:10;;;;;;;6.00;2.70;;;22.20;88.30;;;;;;5048277;28;20723;-68
2023/05/31 06:31:38;;;;;;;2.87;2.00;;;22.70;85.70;;;;;;5043789;28;20191;-70
2023/05/31 06:34:04;;;;;;;6.17;2.47;;;23.50;83.00;;;;;;5050564;28;20181;-69
2023/05/31 06:36:30;;;;;;;5.83;2.53;;;24.50;80.80;;;;;;5051198;28;20413;-69
2023/05/31 06:38:55;;;;;;;4.00;1.90;;;24.40;79.60;;;;;;5051304;28;20206;-69
2023/05/31 06:41:21;;;;;;;2.80;2.40;;;23.80;79.50;;;;;;5049681;28;20629;-69
2023/05/31 06:43:47;;;;;;;2.30;1.83;;;23.30;80.70;;;;;;5051497;28;20205;-69
2023/05/31 06:46:13;;;;;;;3.23;1.90;;;24.30;79.60;;;;;;5051302;28;20417;-70
2023/05/31 06:48:38;;;;;;;8.57;2.60;;;24.70;77.00;;;;;;5049745;28;20566;-70
2023/05/31 06:51:04;;;;;;;11.13;2.93;;;23.90;78.30;;;;;;5051201;28;20578;-69
2023/05/31 06:53:30;;;;;;;6.27;2.20;;;22.90;79.90;;;;;;5049972;28;20179;-71
2023/05/31 06:55:56;;;;;;;5.60;1.80;;;23.30;79.50;;;;;;5050783;28;20405;-69
2023/05/31 06:58:21;;;;;;;3.30;2.10;;;22.90;81.50;;;;;;5050908;28;20225;-69
2023/05/31 07:00:47;;;;;;;4.80;2.20;;;23.30;79.40;;;;;;5049974;28;20232;-69
2023/05/31 07:03:12;;;;;;;6.97;1.97;;;23.50;79.00;;;;;;5051202;28;20540;-70
2023/05/31 07:05:40;;;;;;;4.37;2.70;;;24.10;78.50;;;;;;5049163;28;20175;-69
2023/05/31 07:08:06;;;;;;;4.63;1.90;;;24.20;80.20;;;;;;5050964;28;20285;-68
2023/05/31 07:10:33;;;;;;;6.63;1.57;;;23.70;79.00;;;;;;5050823;28;20562;-71
2023/05/31 07:12:59;;;;;;;4.30;1.77;;;23.20;79.10;;;;;;5049882;28;20429;-70
2023/05/31 07:15:25;;;;;;;3.80;2.07;;;23.50;81.80;;;;;;5050793;28;20419;-70
2023/05/31 07:17:51;;;;;;;3.23;2.27;;;23.50;81.10;;;;;;5050675;28;20266;-69
2023/05/31 07:20:16;;;;;;;3.60;2.10;;;23.60;78.50;;;;;;5051120;28;20453;-69
2023/05/31 07:22:42;;;;;;;3.20;1.60;;;24.40;78.60;;;;;;5045064;28;20213;-69
2023/05/31 07:25:08;;;;;;;3.90;2.20;;;25.90;75.60;;;;;;5050770;28;20218;-70
2023/05/31 07:27:34;;;;;;;3.40;2.27;;;25.50;74.40;;;;;;5045221;28;20556;-70
2023/05/31 07:29:59;;;;;;;3.60;2.37;;;25.50;72.80;;;;;;5050901;28;20413;-70
2023/05/31 07:32:25;;;;;;;5.50;3.60;;;24.70;75.00;;;;;;5049342;28;20175;-69
2023/05/31 07:34:51;;;;;;;7.17;5.07;;;25.40;75.40;;;;;;5050545;28;20186;-69
2023/05/31 07:37:16;;;;;;;2.03;1.83;;;25.60;75.90;;;;;;5049352;28;20175;-70
2023/05/31 07:39:44;;;;;;;2.80;2.00;;;26.80;72.20;;;;;;5047928;28;20206;-71
2023/05/31 07:42:09;;;;;;;3.30;2.00;;;28.20;64.40;;;;;;5054496;28;20230;-70
2023/05/31 07:44:35;;;;;;;3.50;2.00;;;27.90;65.50;;;;;;5052833;28;20839;-70
2023/05/31 07:47:01;;;;;;;2.90;1.90;;;26.60;65.90;;;;;;5057518;28;20586;-70
2023/05/31 07:49:26;;;;;;;3.40;2.23;;;25.60;69.20;;;;;;5052259;28;20458;-69
2023/05/31 07:51:52;;;;;;;2.60;1.73;;;26.50;68.90;;;;;;5054158;28;20175;-69
2023/05/31 07:54:17;;;;;;;2.80;1.90;;;26.20;68.10;;;;;;5054029;28;20178;-69
2023/05/31 07:56:43;;;;;;;8.40;2.10;;;27.10;64.80;;;;;;5054137;28;20182;-69
2023/05/31 07:59:09;;;;;;;2.67;1.87;;;26.60;62.50;;;;;;5054515;28;20229;-69
2023/05/31 08:01:35;;;;;;;3.57;2.60;;;25.00;67.40;;;;;;5054144;28;20189;-69
2023/05/31 08:04:08;;;;;;;3.43;2.27;;;25.60;68.60;;;;;;5052847;28;20194;-68
2023/05/31 08:06:34;;;;;;;3.33;2.07;;;25.80;66.70;;;;;;5067468;22;20892;-71
2023/05/31 08:09:00;;;;;;;6.37;2.20;;;25.70;66.80;;;;;;5032304;28;20489;-70
2023/05/31 08:11:27;;;;;;;6.07;2.17;;;25.60;64.80;;;;;;5027142;28;20178;-70
2023/05/31 08:13:53;;;;;;;4.50;1.87;;;25.40;66.00;;;;;;5032325;28;20559;-72
2023/05/31 08:16:18;;;;;;;2.93;1.97;;;25.60;66.40;;;;;;5032379;28;20430;-71
2023/05/31 08:18:44;;;;;;;4.50;1.57;;;26.50;63.00;;;;;;5032058;28;20245;-69
2023/05/31 08:21:11;;;;;;;2.77;2.10;;;27.30;60.80;;;;;;5030958;28;20470;-70
2023/05/31 08:23:36;;;;;;;3.13;2.30;;;25.70;61.80;;;;;;5031394;28;20460;-71
2023/05/31 08:26:02;;;;;;;2.03;1.57;;;26.60;63.60;;;;;;5031871;28;20790;-73
2023/05/31 08:28:29;;;;;;;2.67;1.40;;;26.80;62.10;;;;;;5032187;28;20186;-72
2023/05/31 08:30:55;;;;;;;3.00;1.60;;;25.20;59.50;;;;;;5032441;28;20191;-72
2023/05/31 08:33:21;;;;;;;5.83;2.30;;;25.00;59.50;;;;;;5032261;28;20527;-73
2023/05/31 08:35:46;;;;;;;3.77;1.80;;;24.90;60.00;;;;;;5030501;28;20184;-70
2023/05/31 08:38:12;;;;;;;2.87;1.40;;;26.20;60.00;;;;;;5031835;28;20191;-72
2023/05/31 08:40:39;;;;;;;4.83;1.63;;;26.80;58.10;;;;;;5031714;28;20241;-72
2023/05/31 08:43:07;;;;;;;3.33;1.83;;;26.40;59.00;;;;;;5032043;28;20281;-69
2023/05/31 08:45:35;;;;;;;4.77;1.90;;;26.70;58.90;;;;;;5031564;28;20912;-68
2023/05/31 08:48:19;;;;;;;6.60;4.50;;;26.10;59.80;;;;;;5031760;28;20438;-71
2023/05/31 08:50:46;;;;;;;4.03;2.73;;;27.20;56.50;;;;;;5026378;28;20440;-70
2023/05/31 08:53:15;;;;;;;2.53;1.60;;;28.00;54.50;;;;;;5030433;28;20453;-71
2023/05/31 08:55:42;;;;;;;2.23;1.40;;;27.10;53.80;;;;;;5031385;28;20402;-72
2023/05/31 08:58:10;;;;;;;3.93;1.60;;;26.50;55.80;;;;;;5031647;28;20465;-72
2023/05/31 09:00:36;;;;;;;2.50;1.87;;;25.90;56.60;;;;;;5031998;28;20414;-71
2023/05/31 09:03:05;;;;;;;3.37;2.10;;;26.20;56.60;;;;;;5031366;28;21065;-71
2023/05/31 09:05:31;;;;;;;3.40;1.47;;;26.70;53.30;;;;;;5031249;28;20266;-70
2023/05/31 09:07:58;;;;;;;4.40;1.60;;;27.30;51.90;;;;;;5031070;28;20891;-71
2023/05/31 09:10:24;;;;;;;1.90;1.70;;;26.90;54.30;;;;;;5029927;28;20278;-70
2023/05/31 09:12:49;;;;;;;2.17;1.77;;;26.60;56.10;;;;;;5031183;28;20493;-72
2023/05/31 09:15:15;;;;;;;2.00;1.67;;;27.10;56.70;;;;;;5031279;28;20183;-70
2023/05/31 09:17:45;;;;;;;4.00;1.70;;;26.30;56.60;;;;;;5031338;28;20618;-71
2023/05/31 09:20:12;;;;;;;2.77;1.87;;;26.50;55.60;;;;;;5031273;28;20487;-71
2023/05/31 09:22:38;;;;;;;5.30;1.40;;;27.90;53.50;;;;;;5031079;28;20536;-72
2023/05/31 09:25:03;;;;;;;2.60;1.30;;;29.20;50.40;;;;;;5029700;28;20770;-72
2023/05/31 09:27:38;;;;;;;4.10;1.97;;;27.80;51.80;;;;;;5030977;28;20322;-71
2023/05/31 09:30:11;;;;;;;5.10;1.50;;;27.60;50.80;;;;;;5030716;28;20166;-71
2023/05/31 09:32:37;;;;;;;2.10;1.90;;;26.90;51.20;;;;;;5030918;28;20517;-70
2023/05/31 09:35:17;;;;;;;2.27;2.07;;;26.80;52.30;;;;;;5030729;28;21014;-72
2023/05/31 09:37:47;;;;;;;3.40;1.53;;;27.10;52.40;;;;;;5030703;28;20270;-69
2023/05/31 09:40:14;;;;;;;1.97;1.50;;;25.20;55.10;;;;;;5030839;28;20461;-70
2023/05/31 09:42:48;;;;;;;2.60;1.50;;;24.80;55.50;;;;;;5029300;28;20963;-72
2023/05/31 09:45:14;;;;;;;2.27;1.57;;;25.20;52.00;;;;;;5030846;28;20711;-70
2023/05/31 09:47:40;;;;;;;6.00;1.70;;;27.10;50.20;;;;;;5030499;28;20533;-71
2023/05/31 09:50:09;;;;;;;2.10;1.50;;;27.70;50.00;;;;;;5030744;28;20414;-70
2023/05/31 09:52:37;;;;;;;1.40;1.30;;;27.80;51.30;;;;;;5030828;28;20183;-70
2023/05/31 09:55:12;;;;;;;2.50;1.27;;;28.50;48.70;;;;;;5030452;28;20414;-71
2023/05/31 09:57:43;;;;;;;1.37;1.13;;;28.90;46.40;;;;;;5028960;28;20595;-71
2023/05/31 10:00:17;;;;;;;4.23;1.30;;;27.70;46.10;;;;;;5029560;28;20445;-72
2023/05/31 10:02:54;;;;;;;2.53;1.40;;;26.00;48.40;;;;;;5028516;28;20453;-73
2023/05/31 10:05:20;;;;;;;2.27;1.43;;;25.90;50.70;;;;;;5026212;28;20433;-69
2023/05/31 10:07:53;;;;;;;3.77;1.47;;;26.20;50.90;;;;;;5024144;28;20481;-70
2023/05/31 10:10:20;;;;;;;1.33;1.23;;;27.20;49.20;;;;;;5028226;28;20848;-72
2023/05/31 10:12:56;;;;;;;2.13;1.23;;;27.70;48.00;;;;;;5027781;28;20435;-69
2023/05/31 10:15:24;;;;;;;2.13;1.67;;;27.00;47.50;;;;;;5024796;28;20570;-70
2023/05/31 10:18:01;;;;;;;3.90;1.20;;;26.90;47.80;;;;;;5020651;28;20460;-68
2023/05/31 10:20:38;;;;;;;4.37;2.60;;;25.50;48.90;;;;;;5024438;28;20488;-71
2023/05/31 10:23:09;;;;;;;3.40;1.50;;;26.00;50.30;;;;;;5030279;28;20499;-72
2023/05/31 10:25:44;;;;;;;2.10;1.50;;;26.20;49.60;;;;;;5030549;28;20413;-72
2023/05/31 10:28:14;;;;;;;2.70;1.37;;;25.90;50.90;;;;;;5029621;28;20427;-72
2023/05/31 10:30:41;;;;;;;3.20;1.57;;;25.70;51.40;;;;;;5029673;28;20408;-71
2023/05/31 10:33:11;;;;;;;2.57;1.00;;;25.70;51.20;;;;;;5030155;28;20543;-71
2023/05/31 10:35:37;;;;;;;1.73;1.20;;;25.70;51.20;;;;;;5029506;28;20417;-71
2023/05/31 10:38:03;;;;;;;1.37;1.27;;;25.70;50.80;;;;;;5027989;28;20857;-71
2023/05/31 10:40:44;;;;;;;1.50;1.10;;;25.40;52.60;;;;;;5025539;28;20302;-70
2023/05/31 10:43:28;;;;;;;4.10;1.27;;;25.60;52.90;;;;;;5028684;28;21121;-71
2023/05/31 10:46:18;;;;;;;1.33;1.13;;;25.50;53.50;;;;;;5018843;28;20553;-72
2023/05/31 10:48:57;;;;;;;2.87;1.30;;;25.10;54.10;;;;;;5025052;28;20486;-71
2023/05/31 10:51:44;;;;;;;1.77;1.30;;;24.60;53.60;;;;;;5020940;28;20422;-72
2023/05/31 10:54:20;;;;;;;1.40;1.20;;;24.40;53.40;;;;;;5022620;28;20499;-71
2023/05/31 10:56:57;;;;;;;1.33;1.23;;;24.60;54.50;;;;;;5021682;28;20421;-73
2023/05/31 10:59:23;;;;;;;5.70;1.60;;;25.00;52.90;;;;;;5028074;28;20416;-71
2023/05/31 11:01:50;;;;;;;1.20;1.10;;;25.50;51.70;;;;;;5023329;28;20415;-70
2023/05/31 11:04:27;;;;;;;1.47;1.20;;;25.40;52.00;;;;;;5029208;28;20445;-71
2023/05/31 11:06:54;;;;;;;1.00;0.90;;;25.30;50.10;;;;;;5021053;28;20453;-73
2023/05/31 11:09:21;;;;;;;4.97;1.43;;;25.50;49.20;;;;;;5029285;28;20434;-72
2023/05/31 11:11:49;;;;;;;1.60;1.10;;;24.90;50.00;;;;;;5027966;28;20420;-71
2023/05/31 11:14:27;;;;;;;2.40;1.53;;;25.10;50.80;;;;;;5029946;28;20467;-70
2023/05/31 11:17:10;;;;;;;2.23;1.00;;;25.20;51.20;;;;;;5026619;28;20746;-71
2023/05/31 11:19:36;;;;;;;1.90;1.40;;;24.40;50.40;;;;;;5026761;28;20518;-71
2023/05/31 11:22:15;;;;;;;1.13;1.00;;;24.60;51.60;;;;;;5033257;28;20451;-71
2023/05/31 11:24:57;;;;;;;3.20;1.20;;;24.90;52.20;;;;;;5032941;28;20420;-70
2023/05/31 11:27:36;;;;;;;2.20;1.13;;;24.70;51.50;;;;;;5028255;28;20523;-71
2023/05/31 11:30:07;;;;;;;1.93;1.43;;;24.80;51.50;;;;;;5032980;28;20431;-70
2023/05/31 11:32:36;;;;;;;1.43;1.00;;;24.80;51.60;;;;;;5030351;28;20456;-71
2023/05/31 11:35:08;;;;;;;2.60;1.53;;;25.00;51.80;;;;;;5032828;28;20442;-71
2023/05/31 11:37:37;;;;;;;1.13;0.93;;;25.40;51.40;;;;;;5032738;28;20540;-70
2023/05/31 11:40:08;;;;;;;1.10;1.00;;;25.70;51.40;;;;;;5032842;28;20773;-70
2023/05/31 11:42:37;;;;;;;2.77;1.20;;;25.90;50.40;;;;;;5033031;28;20530;-71
2023/05/31 11:45:05;;;;;;;1.53;0.90;;;25.80;50.80;;;;;;5031235;28;20408;-71
2023/05/31 11:48:08;;;;;;;1.10;1.00;;;25.30;50.60;;;;;;5032448;28;20434;-72
2023/05/31 11:50:34;;;;;;;0.80;0.80;;;25.50;50.10;;;;;;5030261;28;20468;-71
2023/05/31 11:53:04;;;;;;;1.10;0.93;;;25.60;49.60;;;;;;5030413;28;20509;-71
2023/05/31 11:55:33;;;;;;;1.53;1.20;;;25.20;51.40;;;;;;5032720;28;20178;-72
2023/05/31 11:57:59;;;;;;;3.57;1.10;;;25.00;51.40;;;;;;5030906;28;20828;-71
2023/05/31 12:00:24;;;;;;;1.27;1.00;;;24.80;52.00;;;;;;5032756;28;20449;-70
2023/05/31 12:02:57;;;;;;;1.33;0.90;;;25.00;51.90;;;;;;5032767;28;20540;-72
2023/05/31 12:05:23;;;;;;;1.10;1.00;;;25.40;51.60;;;;;;5033121;28;20203;-70
2023/05/31 12:07:53;;;;;;;1.47;1.27;;;25.10;52.10;;;;;;5032947;28;20572;-69
2023/05/31 12:10:19;;;;;;;1.67;0.80;;;24.50;51.70;;;;;;5032355;28;20405;-71
2023/05/31 12:12:46;;;;;;;1.20;1.07;;;24.50;52.70;;;;;;5032836;28;20761;-70
2023/05/31 12:15:12;;;;;;;1.53;1.00;;;24.60;53.60;;;;;;5032575;28;20313;-71
2023/05/31 12:17:41;;;;;;;1.83;1.10;;;25.10;53.30;;;;;;5032315;28;20443;-72
2023/05/31 12:20:08;;;;;;;1.50;1.20;;;24.90;53.40;;;;;;5032496;28;20410;-71
2023/05/31 12:22:34;;;;;;;1.20;0.90;;;24.80;52.30;;;;;;5032377;28;20463;-72
2023/05/31 12:25:00;;;;;;;1.70;0.90;;;24.60;51.80;;;;;;5031540;28;20879;-70
2023/05/31 12:27:27;;;;;;;1.43;1.03;;;24.50;52.10;;;;;;5031980;28;20611;-71
2023/05/31 12:29:56;;;;;;;2.27;1.00;;;24.20;50.90;;;;;;5028331;28;20431;-72
2023/05/31 12:32:27;;;;;;;2.50;0.93;;;24.20;51.90;;;;;;5026253;28;20733;-70
2023/05/31 12:35:03;;;;;;;4.30;1.30;;;24.30;50.90;;;;;;5029821;28;20438;-70
2023/05/31 12:37:37;;;;;;;1.10;1.00;;;24.40;50.70;;;;;;5029701;28;20747;-72
2023/05/31 12:40:16;;;;;;;1.50;1.00;;;24.60;50.50;;;;;;5029862;28;20809;-70
2023/05/31 12:42:43;;;;;;;2.77;1.50;;;24.80;51.00;;;;;;5032669;28;20456;-71
2023/05/31 12:45:10;;;;;;;1.30;1.00;;;24.90;50.90;;;;;;5027621;28;20570;-70
2023/05/31 12:47:38;;;;;;;1.77;1.40;;;25.20;49.40;;;;;;5036263;28;20425;-71
2023/05/31 12:50:07;;;;;;;1.10;1.00;;;25.20;49.60;;;;;;5031157;28;20421;-71
2023/05/31 12:52:34;;;;;;;1.10;0.90;;;25.20;50.00;;;;;;5030931;28;20891;-71